createdAt,value
2024-02-22T00:01:13.440Z,35.55
2024-02-22T00:03:39.990Z,37.47
2024-02-22T00:06:06.775Z,38.03
2024-02-22T00:08:33.492Z,36.05
2024-02-22T00:11:00.221Z,36.58
2024-02-22T00:13:27.196Z,35.08
2024-02-22T00:15:53.816Z,35.50
2024-02-22T00:18:20.551Z,33.08
2024-02-22T00:20:47.316Z,42.58
2024-02-22T00:23:13.888Z,35.85
2024-02-22T00:25:40.568Z,36.25
2024-02-22T00:28:07.173Z,34.65
2024-02-22T00:30:33.961Z,33.58
2024-02-22T00:33:00.597Z,33.95
2024-02-22T00:35:28.254Z,33.55
2024-02-22T00:37:54.895Z,35.70
2024-02-22T00:40:21.499Z,34.80
2024-02-22T00:42:48.334Z,35.20
2024-02-22T00:45:15.704Z,36.85
2024-02-22T00:47:42.280Z,36.20
2024-02-22T00:50:09.739Z,34.72
2024-02-22T00:52:36.874Z,35.28
2024-02-22T00:55:03.916Z,33.35
2024-02-22T00:57:30.455Z,39.47
2024-02-22T00:59:56.986Z,35.70
2024-02-22T01:02:27.190Z,32.70
2024-02-22T01:07:22.385Z,32.85
2024-02-22T01:09:49.068Z,34.60
2024-02-22T01:12:15.707Z,31.52
2024-02-22T01:14:42.289Z,34.83
2024-02-22T01:17:08.959Z,34.53
2024-02-22T01:19:35.740Z,36.35
2024-02-22T01:22:03.520Z,35.85
2024-02-22T01:24:30.370Z,33.10
2024-02-22T01:26:57.028Z,34.67
2024-02-22T01:29:23.566Z,36.90
2024-02-22T01:31:50.135Z,31.20
2024-02-22T01:34:16.803Z,34.08
2024-02-22T01:36:43.398Z,35.92
2024-02-22T01:39:10.970Z,36.08
2024-02-22T01:41:37.720Z,35.97
2024-02-22T01:44:04.382Z,37.00
2024-02-22T01:46:31.356Z,35.15
2024-02-22T01:48:57.975Z,32.00
2024-02-22T01:51:24.556Z,35.78
2024-02-22T01:53:51.170Z,33.25
2024-02-22T01:56:18.968Z,35.00
2024-02-22T01:58:45.596Z,35.60
2024-02-22T02:01:12.209Z,35.33
2024-02-22T02:03:38.787Z,37.33
2024-02-22T02:06:06.811Z,36.53
2024-02-22T02:08:33.540Z,36.90
2024-02-22T02:11:00.193Z,34.60
2024-02-22T02:13:26.819Z,34.83
2024-02-22T02:15:53.340Z,34.50
2024-02-22T02:18:19.889Z,32.85
2024-02-22T02:21:11.344Z,37.90
2024-02-22T02:23:50.092Z,33.95
2024-02-22T02:26:17.098Z,34.67
2024-02-22T02:28:43.729Z,35.88
2024-02-22T02:31:10.585Z,36.05
2024-02-22T02:33:37.323Z,37.72
2024-02-22T02:36:03.910Z,34.75
2024-02-22T02:38:30.444Z,33.25
2024-02-22T02:40:56.996Z,35.63
2024-02-22T02:43:23.640Z,35.25
2024-02-22T02:45:50.171Z,35.90
2024-02-22T02:48:20.633Z,34.75
2024-02-22T02:50:47.858Z,35.85
2024-02-22T02:53:14.573Z,37.15
2024-02-22T02:55:41.275Z,40.33
2024-02-22T02:58:09.500Z,36.30
2024-02-22T03:00:36.058Z,38.50
2024-02-22T03:03:02.635Z,37.17
2024-02-22T03:05:29.292Z,33.63
2024-02-22T03:07:55.932Z,38.25
2024-02-22T03:10:22.687Z,37.30
2024-02-22T03:12:49.273Z,37.90
2024-02-22T03:15:15.876Z,37.30
2024-02-22T03:17:42.465Z,37.78
2024-02-22T03:20:12.158Z,38.58
2024-02-22T03:22:39.257Z,36.63
2024-02-22T03:25:06.614Z,38.53
2024-02-22T03:27:35.868Z,36.28
2024-02-22T03:30:04.531Z,35.80
2024-02-22T03:32:31.310Z,38.58
2024-02-22T03:34:59.596Z,38.58
2024-02-22T03:37:26.353Z,36.75
2024-02-22T03:39:52.888Z,38.78
2024-02-22T03:42:19.995Z,37.00
2024-02-22T03:44:46.552Z,38.38
2024-02-22T03:47:13.492Z,39.53
2024-02-22T03:49:40.168Z,40.67
2024-02-22T03:52:08.032Z,40.10
2024-02-22T03:54:37.280Z,40.40
2024-02-22T03:57:04.549Z,43.78
2024-02-22T03:59:31.338Z,40.17
2024-02-22T04:01:57.907Z,40.97
2024-02-22T04:04:24.612Z,41.15
2024-02-22T04:06:51.500Z,41.53
2024-02-22T04:09:18.067Z,41.03
2024-02-22T04:11:44.824Z,40.53
2024-02-22T04:14:11.496Z,39.40
2024-02-22T04:16:38.110Z,42.10
2024-02-22T04:19:04.712Z,39.28
2024-02-22T04:21:31.284Z,41.20
2024-02-22T04:23:57.796Z,42.30
2024-02-22T04:26:24.363Z,42.17
2024-02-22T04:28:50.916Z,41.15
2024-02-22T04:31:17.459Z,40.47
2024-02-22T04:33:44.127Z,45.65
2024-02-22T04:36:10.684Z,999.90
2024-02-22T04:38:37.318Z,41.30
2024-02-22T04:41:04.300Z,38.58
2024-02-22T04:43:30.869Z,41.10
2024-02-22T04:45:57.411Z,42.42
2024-02-22T04:48:24.018Z,42.38
2024-02-22T04:50:50.568Z,42.08
2024-02-22T04:53:17.231Z,999.90
2024-02-22T04:55:43.838Z,283.20
2024-02-22T04:58:10.427Z,43.28
2024-02-22T05:00:36.998Z,43.90
2024-02-22T05:03:04.734Z,44.25
2024-02-22T05:05:31.486Z,999.90
2024-02-22T05:07:58.295Z,44.65
2024-02-22T05:10:24.903Z,46.03
2024-02-22T05:12:51.454Z,42.80
2024-02-22T05:15:17.969Z,48.10
2024-02-22T05:17:44.536Z,46.75
2024-02-22T05:20:11.406Z,46.97
2024-02-22T05:22:38.096Z,46.00
2024-02-22T05:25:05.011Z,45.83
2024-02-22T05:27:31.595Z,50.83
2024-02-22T05:29:58.117Z,52.17
2024-02-22T05:32:24.937Z,48.50
2024-02-22T05:34:51.600Z,48.20
2024-02-22T05:37:18.241Z,47.78
2024-02-22T05:39:44.805Z,48.67
2024-02-22T05:42:11.313Z,50.33
2024-02-22T05:44:37.924Z,46.08
2024-02-22T05:47:04.660Z,43.90
2024-02-22T05:49:31.446Z,49.15
2024-02-22T05:51:58.302Z,50.10
2024-02-22T05:54:24.928Z,49.33
2024-02-22T05:56:51.563Z,45.85
2024-02-22T05:59:18.191Z,50.78
2024-02-22T06:01:45.122Z,50.67
2024-02-22T06:04:12.272Z,289.25
2024-02-22T06:06:38.942Z,51.35
2024-02-22T06:09:09.150Z,50.95
2024-02-22T06:14:03.278Z,999.90
2024-02-22T06:16:30.138Z,999.90
2024-02-22T06:18:56.756Z,762.72
2024-02-22T06:21:23.353Z,50.88
2024-02-22T06:23:52.511Z,51.72
2024-02-22T06:26:20.789Z,52.17
2024-02-22T06:28:48.689Z,54.55
2024-02-22T06:31:15.548Z,52.80
2024-02-22T06:33:42.247Z,528.28
2024-02-22T06:36:10.890Z,51.58
2024-02-22T06:38:41.534Z,51.47
2024-02-22T06:41:08.326Z,54.70
2024-02-22T06:43:34.939Z,54.83
2024-02-22T06:46:01.542Z,55.58
2024-02-22T06:48:28.183Z,55.00
2024-02-22T06:50:56.079Z,55.72
2024-02-22T06:53:22.741Z,52.78
2024-02-22T06:55:49.413Z,52.58
2024-02-22T06:58:16.015Z,55.33
2024-02-22T07:00:42.651Z,58.50
2024-02-22T07:03:11.083Z,58.85
2024-02-22T07:05:37.785Z,59.22
2024-02-22T07:08:04.889Z,59.35
2024-02-22T07:10:31.767Z,999.90
2024-02-22T07:12:58.454Z,64.85
2024-02-22T07:15:25.214Z,63.75
2024-02-22T07:17:51.960Z,63.08
2024-02-22T07:20:18.738Z,63.80
2024-02-22T07:22:53.544Z,62.90
2024-02-22T07:25:22.033Z,297.33
2024-02-22T07:27:51.579Z,64.20
2024-02-22T07:30:18.087Z,999.90
2024-02-22T07:32:45.067Z,66.25
2024-02-22T07:35:11.693Z,68.05
2024-02-22T07:37:38.269Z,68.32
2024-02-22T07:40:05.236Z,71.43
2024-02-22T07:42:33.996Z,70.18
2024-02-22T07:45:00.634Z,74.28
2024-02-22T07:47:27.587Z,70.70
2024-02-22T07:49:54.709Z,999.90
2024-02-22T07:52:21.246Z,999.90
2024-02-22T07:54:48.694Z,999.90
2024-02-22T07:57:15.440Z,999.90
2024-02-22T07:59:41.944Z,999.90
2024-02-22T08:02:08.587Z,999.90
2024-02-22T08:04:35.965Z,999.90
2024-02-22T08:07:03.394Z,999.90
2024-02-22T08:09:30.028Z,999.90
2024-02-22T08:11:56.703Z,999.90
2024-02-22T08:14:23.359Z,999.90
2024-02-22T08:16:50.285Z,999.90
2024-02-22T08:19:17.517Z,999.90
2024-02-22T08:21:44.118Z,999.90
2024-02-22T08:24:11.866Z,999.90
2024-02-22T08:26:38.685Z,999.90
2024-02-22T08:29:05.451Z,999.90
2024-02-22T08:31:32.175Z,772.58
2024-02-22T08:33:58.861Z,86.07
2024-02-22T08:36:25.458Z,87.85
2024-02-22T08:38:51.988Z,85.18
2024-02-22T08:41:18.520Z,88.13
2024-02-22T08:43:45.137Z,90.78
2024-02-22T08:46:12.552Z,92.68
2024-02-22T08:48:39.235Z,999.90
2024-02-22T08:51:05.858Z,92.05
2024-02-22T08:53:32.797Z,88.30
2024-02-22T08:55:59.484Z,999.90
2024-02-22T08:58:26.381Z,999.90
2024-02-22T09:00:53.075Z,999.90
2024-02-22T09:03:19.773Z,999.90
2024-02-22T09:05:46.781Z,999.90
2024-02-22T09:08:13.459Z,999.90
2024-02-22T09:10:40.195Z,999.90
2024-02-22T09:13:06.855Z,999.90
2024-02-22T09:15:33.409Z,999.90
2024-02-22T09:18:00.353Z,776.33
2024-02-22T09:20:28.517Z,776.17
2024-02-22T09:22:57.147Z,552.33
2024-02-22T09:25:23.974Z,775.70
2024-02-22T09:27:51.494Z,777.05
2024-02-22T09:30:18.107Z,108.15
2024-02-22T09:32:45.114Z,103.75
2024-02-22T09:35:11.784Z,107.22
2024-02-22T09:37:38.400Z,107.05
2024-02-22T09:40:05.470Z,108.50
2024-02-22T09:42:32.017Z,104.65
2024-02-22T09:44:58.588Z,104.38
2024-02-22T09:47:25.898Z,103.22
2024-02-22T09:49:52.917Z,99.60
2024-02-22T09:52:21.425Z,104.03
2024-02-22T09:54:49.449Z,105.63
2024-02-22T09:57:16.008Z,110.10
2024-02-22T09:59:48.279Z,108.25
2024-02-22T10:02:14.907Z,106.47
2024-02-22T10:04:51.545Z,103.55
2024-02-22T10:07:25.350Z,104.70
2024-02-22T10:09:52.395Z,108.20
2024-02-22T10:12:31.008Z,111.95
2024-02-22T10:14:58.385Z,112.88
2024-02-22T10:17:26.505Z,111.25
2024-02-22T10:20:00.678Z,106.95
2024-02-22T10:22:28.543Z,117.88
2024-02-22T10:24:55.432Z,104.80
2024-02-22T10:27:23.556Z,115.10
2024-02-22T10:29:50.684Z,104.85
2024-02-22T10:32:20.529Z,111.70
2024-02-22T10:34:49.393Z,111.25
2024-02-22T10:37:17.153Z,115.55
2024-02-22T10:39:46.075Z,118.93
2024-02-22T10:42:14.153Z,107.28
2024-02-22T10:44:46.765Z,104.70
2024-02-22T10:47:13.395Z,103.35
2024-02-22T10:49:40.184Z,106.18
2024-02-22T10:52:07.354Z,107.03
2024-02-22T10:54:34.004Z,99.45
2024-02-22T10:57:00.588Z,103.88
2024-02-22T10:59:27.127Z,101.28
2024-02-22T11:01:53.689Z,106.25
2024-02-22T11:04:20.716Z,109.50
2024-02-22T11:06:48.785Z,106.82
2024-02-22T11:09:19.493Z,111.28
2024-02-22T11:11:48.401Z,102.13
2024-02-22T11:14:25.314Z,112.22
2024-02-22T11:16:51.937Z,111.72
2024-02-22T11:19:26.899Z,110.40
2024-02-22T11:21:56.575Z,108.75
2024-02-22T11:24:24.423Z,100.07
2024-02-22T11:26:57.255Z,104.72
2024-02-22T11:29:30.890Z,92.65
2024-02-22T11:32:06.828Z,96.68
2024-02-22T11:34:33.405Z,92.10
2024-02-22T11:37:18.339Z,97.65
2024-02-22T11:39:46.041Z,90.35
2024-02-22T11:42:19.800Z,94.80
2024-02-22T11:44:46.665Z,96.68
2024-02-22T11:47:16.031Z,98.13
2024-02-22T11:49:43.853Z,99.17
2024-02-22T11:52:10.500Z,100.88
2024-02-22T11:54:37.129Z,96.07
2024-02-22T11:57:04.103Z,93.43
2024-02-22T11:59:31.635Z,92.18
2024-02-22T12:01:59.188Z,91.57
2024-02-22T12:04:27.220Z,95.40
2024-02-22T12:06:54.758Z,92.38
2024-02-22T12:09:21.734Z,96.30
2024-02-22T12:11:48.350Z,97.22
2024-02-22T12:14:15.080Z,90.03
2024-02-22T12:16:41.763Z,100.72
2024-02-22T12:19:08.438Z,95.80
2024-02-22T12:21:37.349Z,97.25
2024-02-22T12:24:04.490Z,99.47
2024-02-22T12:26:31.052Z,95.82
2024-02-22T12:28:59.162Z,101.70
2024-02-22T12:31:28.108Z,100.97
2024-02-22T12:33:55.471Z,110.03
2024-02-22T12:36:23.126Z,115.13
2024-02-22T12:38:49.710Z,108.30
2024-02-22T12:41:16.887Z,111.68
2024-02-22T12:43:50.705Z,108.43
2024-02-22T12:46:17.951Z,103.80
2024-02-22T12:48:44.946Z,103.43
2024-02-22T12:51:11.885Z,106.95
2024-02-22T12:53:39.256Z,104.38
2024-02-22T12:56:06.363Z,98.85
2024-02-22T12:58:33.050Z,100.55
2024-02-22T13:00:59.704Z,104.97
2024-02-22T13:03:26.690Z,99.68
2024-02-22T13:05:53.314Z,100.35
2024-02-22T13:08:26.135Z,93.78
2024-02-22T13:10:56.867Z,94.18
2024-02-22T13:13:23.428Z,106.53
2024-02-22T13:15:50.049Z,96.10
2024-02-22T13:18:16.736Z,97.45
2024-02-22T13:20:43.552Z,99.65
2024-02-22T13:23:10.328Z,96.55
2024-02-22T13:25:36.909Z,98.65
2024-02-22T13:28:03.821Z,97.70
2024-02-22T13:30:30.401Z,105.35
2024-02-22T13:32:56.988Z,103.20
2024-02-22T13:35:23.564Z,105.60
2024-02-22T13:37:52.706Z,106.47
2024-02-22T13:40:21.144Z,107.20
2024-02-22T13:42:47.745Z,113.47
2024-02-22T13:45:14.363Z,103.15
2024-02-22T13:47:41.059Z,107.28
2024-02-22T13:50:08.392Z,103.68
2024-02-22T13:52:35.045Z,104.72
2024-02-22T13:55:03.413Z,102.72
2024-02-22T13:57:34.510Z,107.60
2024-02-22T14:00:01.083Z,104.45
2024-02-22T14:02:27.672Z,104.07
2024-02-22T14:04:54.406Z,107.18
2024-02-22T14:07:20.986Z,100.57
2024-02-22T14:09:49.466Z,105.75
2024-02-22T14:12:16.015Z,103.50
2024-02-22T14:14:42.819Z,107.55
2024-02-22T14:17:11.352Z,102.05
2024-02-22T14:19:38.248Z,101.28
2024-02-22T14:22:04.937Z,103.35
2024-02-22T14:24:32.099Z,114.13
2024-02-22T14:27:12.823Z,96.28
2024-02-22T14:29:41.677Z,86.97
2024-02-22T14:32:09.923Z,92.25
2024-02-22T14:34:38.748Z,95.85
2024-02-22T14:37:05.910Z,102.45
2024-02-22T14:39:32.427Z,111.47
2024-02-22T14:41:59.217Z,107.22
2024-02-22T14:44:26.061Z,99.60
2024-02-22T14:46:52.796Z,98.35
2024-02-22T14:49:19.872Z,103.78
2024-02-22T14:51:46.725Z,110.43
2024-02-22T14:54:13.263Z,113.65
2024-02-22T14:56:40.241Z,104.88
2024-02-22T14:59:06.823Z,102.68
2024-02-22T15:01:33.419Z,97.85
2024-02-22T15:03:59.949Z,113.18
2024-02-22T15:06:26.560Z,94.38
2024-02-22T15:08:53.143Z,94.55
2024-02-22T15:11:19.888Z,92.78
2024-02-22T15:13:47.606Z,89.05
2024-02-22T15:16:14.400Z,97.28
2024-02-22T15:18:41.181Z,95.60
2024-02-22T15:21:08.055Z,99.57
2024-02-22T15:23:37.307Z,93.43
2024-02-22T15:26:07.977Z,95.30
2024-02-22T15:28:34.588Z,98.53
2024-02-22T15:31:01.299Z,101.93
2024-02-22T15:33:28.036Z,96.53
2024-02-22T15:35:55.241Z,92.03
2024-02-22T15:38:22.032Z,86.47
2024-02-22T15:40:49.247Z,98.45
2024-02-22T15:43:16.028Z,92.70
2024-02-22T15:45:43.438Z,93.78
2024-02-22T15:48:10.077Z,87.78
2024-02-22T15:50:36.712Z,91.72
2024-02-22T15:53:06.236Z,107.80
2024-02-22T15:55:33.418Z,119.68
2024-02-22T15:58:02.831Z,91.28
2024-02-22T16:00:30.469Z,87.35
2024-02-22T16:02:57.130Z,108.68
2024-02-22T16:05:24.850Z,97.15
2024-02-22T16:07:51.926Z,90.10
2024-02-22T16:10:18.574Z,90.80
2024-02-22T16:12:45.106Z,85.18
2024-02-22T16:15:11.866Z,86.75
2024-02-22T16:17:39.153Z,84.20
2024-02-22T16:20:06.364Z,88.25
2024-02-22T16:22:32.979Z,88.90
2024-02-22T16:24:59.781Z,87.20
2024-02-22T16:27:26.412Z,123.50
2024-02-22T16:29:53.479Z,107.38
2024-02-22T16:32:20.136Z,79.93
2024-02-22T16:34:46.732Z,84.45
2024-02-22T16:37:16.065Z,80.55
2024-02-22T16:39:45.922Z,120.45
2024-02-22T16:42:12.621Z,85.88
2024-02-22T16:44:41.251Z,86.88
2024-02-22T16:47:15.586Z,86.70
2024-02-22T16:49:42.721Z,77.72
2024-02-22T16:52:09.828Z,82.65
2024-02-22T16:54:36.770Z,84.80
2024-02-22T16:57:04.408Z,90.32
2024-02-22T16:59:31.594Z,89.03
2024-02-22T17:01:58.314Z,81.53
2024-02-22T17:04:24.956Z,81.60
2024-02-22T17:06:59.265Z,560.03
2024-02-22T17:09:29.145Z,86.88
2024-02-22T17:11:56.793Z,79.32
2024-02-22T17:14:24.419Z,84.10
2024-02-22T17:16:51.156Z,83.50
2024-02-22T17:19:18.316Z,81.25
2024-02-22T17:21:47.665Z,92.93
2024-02-22T17:24:15.233Z,83.30
2024-02-22T17:26:41.749Z,87.82
2024-02-22T17:29:08.312Z,84.68
2024-02-22T17:31:34.896Z,80.95
2024-02-22T17:34:01.529Z,83.72
2024-02-22T17:36:28.067Z,82.22
2024-02-22T17:38:55.945Z,89.43
2024-02-22T17:41:22.512Z,79.45
2024-02-22T17:43:49.123Z,77.82
2024-02-22T17:46:15.698Z,78.60
2024-02-22T17:48:42.358Z,83.03
2024-02-22T17:51:09.108Z,78.32
2024-02-22T17:53:36.839Z,75.70
2024-02-22T17:56:03.812Z,90.68
2024-02-22T17:58:31.948Z,79.72
2024-02-22T18:00:59.838Z,82.72
2024-02-22T18:03:26.583Z,77.80
2024-02-22T18:05:53.140Z,109.22
2024-02-22T18:08:19.755Z,78.05
2024-02-22T18:10:46.657Z,77.90
2024-02-22T18:13:13.284Z,81.25
2024-02-22T18:15:39.832Z,75.50
2024-02-22T18:18:06.501Z,84.15
2024-02-22T18:20:37.779Z,74.28
2024-02-22T18:23:05.262Z,77.68
2024-02-22T18:25:32.015Z,73.22
2024-02-22T18:27:59.573Z,76.80
2024-02-22T18:30:26.098Z,78.35
2024-02-22T18:32:54.279Z,80.22
2024-02-22T18:35:21.366Z,88.95
2024-02-22T18:37:48.268Z,79.63
2024-02-22T18:40:15.225Z,78.95
2024-02-22T18:42:43.320Z,99.90
2024-02-22T18:45:10.967Z,78.55
2024-02-22T18:47:38.122Z,85.40
2024-02-22T18:50:05.192Z,80.88
2024-02-22T18:52:34.756Z,115.10
2024-02-22T18:55:01.987Z,77.95
2024-02-22T18:57:28.537Z,81.88
2024-02-22T18:59:55.223Z,89.30
2024-02-22T19:02:21.839Z,87.50
2024-02-22T19:04:49.519Z,86.70
2024-02-22T19:07:22.285Z,81.22
2024-02-22T19:09:49.371Z,88.63
2024-02-22T19:12:16.199Z,113.45
2024-02-22T19:14:42.769Z,90.32
2024-02-22T19:17:11.313Z,89.75
2024-02-22T19:19:39.730Z,100.32
2024-02-22T19:22:08.293Z,93.40
2024-02-22T19:24:35.037Z,93.00
2024-02-22T19:27:04.451Z,83.43
2024-02-22T19:29:31.247Z,103.18
2024-02-22T19:31:59.845Z,86.63
2024-02-22T19:34:26.606Z,93.82
2024-02-22T19:36:53.357Z,86.10
2024-02-22T19:39:22.109Z,89.53
2024-02-22T19:41:49.406Z,94.47
2024-02-22T19:44:16.111Z,89.72
2024-02-22T19:46:42.724Z,82.80
2024-02-22T19:49:09.523Z,80.10
2024-02-22T19:51:37.960Z,84.03
2024-02-22T19:54:04.498Z,78.13
2024-02-22T19:56:31.016Z,96.82
2024-02-22T19:59:00.762Z,88.18
2024-02-22T20:01:27.706Z,85.18
2024-02-22T20:03:56.321Z,100.25
2024-02-22T20:06:22.900Z,90.30
2024-02-22T20:08:49.426Z,97.80
2024-02-22T20:11:17.133Z,97.38
2024-02-22T20:13:43.716Z,100.40
2024-02-22T20:16:10.251Z,96.18
2024-02-22T20:18:36.898Z,95.38
2024-02-22T20:21:04.965Z,97.50
2024-02-22T20:23:31.778Z,99.43
2024-02-22T20:25:59.720Z,99.65
2024-02-22T20:28:27.941Z,99.75
2024-02-22T20:30:54.523Z,101.68
2024-02-22T20:33:21.545Z,105.60
2024-02-22T20:35:50.409Z,98.20
2024-02-22T20:38:17.755Z,112.90
2024-02-22T20:40:44.840Z,128.63
2024-02-22T20:43:13.061Z,89.97
2024-02-22T20:45:39.604Z,96.78
2024-02-22T20:48:07.069Z,94.68
2024-02-22T20:50:33.697Z,95.68
2024-02-22T20:53:00.279Z,101.85
2024-02-22T20:55:32.457Z,88.72
2024-02-22T20:57:59.486Z,90.75
2024-02-22T21:00:26.125Z,95.63
2024-02-22T21:02:52.650Z,95.15
2024-02-22T21:05:19.312Z,265.20
2024-02-22T21:07:46.158Z,89.78
2024-02-22T21:10:15.593Z,94.72
2024-02-22T21:12:42.105Z,81.40
2024-02-22T21:15:09.116Z,77.68
2024-02-22T21:17:35.952Z,106.55
2024-02-22T21:20:02.703Z,71.18
2024-02-22T21:22:29.249Z,88.97
2024-02-22T21:24:55.748Z,68.47
2024-02-22T21:27:22.398Z,99.50
2024-02-22T21:29:49.467Z,76.38
2024-02-22T21:32:16.082Z,58.10
2024-02-22T21:34:42.692Z,96.10
2024-02-22T21:37:09.278Z,61.95
2024-02-22T21:39:35.792Z,99.95
2024-02-22T21:42:08.052Z,86.32
2024-02-22T21:44:35.075Z,66.68
2024-02-22T21:47:02.063Z,191.27
2024-02-22T21:49:29.547Z,73.72
2024-02-22T21:51:56.095Z,62.95
2024-02-22T21:54:22.789Z,75.72
2024-02-22T21:56:49.375Z,55.50
2024-02-22T21:59:16.272Z,106.15
2024-02-22T22:01:42.914Z,60.50
2024-02-22T22:04:09.525Z,52.75
2024-02-22T22:06:36.085Z,83.93
2024-02-22T22:09:02.646Z,71.15
2024-02-22T22:11:29.326Z,58.28
2024-02-22T22:13:55.979Z,58.28
2024-02-22T22:16:22.497Z,71.43
2024-02-22T22:18:49.122Z,100.03
2024-02-22T22:21:24.988Z,75.38
2024-02-22T22:23:55.363Z,62.17
2024-02-22T22:26:22.069Z,68.15
2024-02-22T22:28:48.748Z,82.05
2024-02-22T22:31:15.332Z,72.93
2024-02-22T22:33:46.529Z,69.70
2024-02-22T22:36:14.942Z,72.97
2024-02-22T22:38:41.763Z,77.20
2024-02-22T22:41:10.300Z,175.55
2024-02-22T22:43:36.881Z,199.55
2024-02-22T22:46:03.771Z,999.90
2024-02-22T22:48:30.640Z,74.07
2024-02-22T22:50:57.597Z,771.35
2024-02-22T22:53:24.244Z,75.68
2024-02-22T22:55:50.873Z,999.90
2024-02-22T22:58:17.430Z,307.55
2024-02-22T23:00:43.965Z,78.38
2024-02-22T23:03:10.807Z,73.18
2024-02-22T23:05:37.428Z,68.05
2024-02-22T23:08:04.167Z,130.73
2024-02-22T23:10:32.076Z,71.75
2024-02-22T23:12:58.791Z,70.20
2024-02-22T23:15:25.596Z,66.07
2024-02-22T23:17:53.329Z,64.20
2024-02-22T23:20:20.170Z,63.72
2024-02-22T23:22:46.752Z,69.38
2024-02-22T23:25:13.951Z,75.32
2024-02-22T23:27:40.484Z,61.53
2024-02-22T23:30:07.396Z,77.25
2024-02-22T23:32:34.995Z,72.43
2024-02-22T23:35:01.648Z,81.70
2024-02-22T23:37:28.209Z,61.95
2024-02-22T23:39:54.749Z,75.60
2024-02-22T23:42:21.626Z,66.47
2024-02-22T23:44:48.181Z,69.88
2024-02-22T23:47:14.718Z,63.78
2024-02-22T23:49:41.364Z,68.90
2024-02-22T23:52:07.913Z,63.55
2024-02-22T23:54:35.537Z,59.15
2024-02-22T23:57:02.094Z,59.95
2024-02-22T23:59:28.644Z,71.28
